Time;durP1;ratioP1;P1;durP2;ratioP2;P2;SDS_P1;SDS_P2;PMS_P1;PMS_P2;Temp;Humidity;BMP_temperature;BMP_pressure;BME280_temperature;BME280_humidity;BME280_pressure;Samples;Min_cycle;Max_cycle;Signal;HPM_P1;HPM_P2
2022/07/01 00:00:36;;;;;;;;;;;;;;;23.19;78.47;96907.28;581718;244;68948;-70
2022/07/01 00:03:04;;;;;;;;;;;;;;;23.19;78.55;96915.32;581742;244;68548;-70
2022/07/01 00:05:31;;;;;;;;;;;;;;;23.19;78.54;96915.32;581695;244;63659;-70
2022/07/01 00:07:59;;;;;;;;;;;;;;;23.18;78.59;96911.06;581712;244;68684;-70
2022/07/01 00:10:26;;;;;;;;;;;;;;;23.18;78.50;96911.06;581704;244;68542;-70
2022/07/01 00:12:54;;;;;;;;;;;;;;;23.19;78.53;96907.28;581703;244;65249;-70
2022/07/01 00:15:22;;;;;;;;;;;;;;;23.18;78.45;96898.44;581788;244;68676;-70
2022/07/01 00:17:50;;;;;;;;;;;;;;;23.18;78.50;96897.66;581698;244;66463;-70
2022/07/01 00:20:18;;;;;;;;;;;;;;;23.17;78.47;96894.18;581675;244;63060;-70
2022/07/01 00:22:45;;;;;;;;;;;;;;;23.18;78.47;96895.77;581692;244;68627;-70
2022/07/01 00:25:13;;;;;;;;;;;;;;;23.18;78.51;96890.41;581689;244;68563;-70
2022/07/01 00:27:41;;;;;;;;;;;;;;;23.18;78.50;96897.66;581763;244;64895;-70
2022/07/01 00:30:09;;;;;;;;;;;;;;;23.18;78.46;96893.08;581704;244;68712;-70
2022/07/01 00:32:37;;;;;;;;;;;;;;;23.19;78.44;96894.70;581677;244;68564;-70
2022/07/01 00:35:05;;;;;;;;;;;;;;;23.18;78.50;96889.61;581692;244;64942;-70
2022/07/01 00:37:32;;;;;;;;;;;;;;;23.18;78.55;96889.61;581722;244;68704;-70
2022/07/01 00:39:59;;;;;;;;;;;;;;;23.18;78.46;96893.08;581753;244;68332;-70
2022/07/01 00:42:27;;;;;;;;;;;;;;;23.18;78.39;96884.25;581700;244;65362;-70
2022/07/01 00:44:54;;;;;;;;;;;;;;;23.18;78.53;96886.93;581683;244;68704;-70
2022/07/01 00:47:23;;;;;;;;;;;;;;;23.19;78.58;96891.20;581670;244;69038;-70
2022/07/01 00:49:50;;;;;;;;;;;;;;;23.18;78.51;96890.41;581704;244;65235;-70
2022/07/01 00:52:18;;;;;;;;;;;;;;;23.18;78.57;96876.20;581731;244;68731;-70
2022/07/01 00:54:45;;;;;;;;;;;;;;;23.18;78.54;96881.56;581700;244;68577;-70
2022/07/01 00:57:13;;;;;;;;;;;;;;;23.17;78.54;96878.09;581697;244;64908;-70
2022/07/01 00:59:41;;;;;;;;;;;;;;;23.18;78.40;96876.20;581667;244;66545;-70
2022/07/01 01:02:09;;;;;;;;;;;;;;;23.18;78.46;96885.05;581684;244;66505;-70
2022/07/01 01:04:36;;;;;;;;;;;;;;;23.18;78.54;96884.25;581721;244;64926;-70
2022/07/01 01:07:04;;;;;;;;;;;;;;;23.17;78.44;96883.45;581734;244;68380;-70
2022/07/01 01:09:33;;;;;;;;;;;;;;;23.18;78.46;96873.52;581705;244;68558;-70
2022/07/01 01:12:01;;;;;;;;;;;;;;;23.19;78.48;96880.47;581691;244;62795;-70
2022/07/01 01:14:29;;;;;;;;;;;;;;;23.18;78.50;96878.89;581656;244;69866;-70
2022/07/01 01:16:56;;;;;;;;;;;;;;;23.18;78.53;96876.20;581642;244;68534;-70
2022/07/01 01:19:24;;;;;;;;;;;;;;;23.18;78.55;96868.95;581742;244;62834;-69
2022/07/01 01:21:51;;;;;;;;;;;;;;;23.18;78.59;96873.52;581721;244;66548;-70
2022/07/01 01:24:19;;;;;;;;;;;;;;;23.18;78.53;96870.84;581678;244;68465;-69
2022/07/01 01:26:46;;;;;;;;;;;;;;;23.18;78.48;96874.31;581684;244;64942;-70
2022/07/01 01:29:13;;;;;;;;;;;;;;;23.18;78.54;96879.68;581709;244;68816;-70
2022/07/01 01:31:41;;;;;;;;;;;;;;;23.18;78.54;96879.68;581736;244;68586;-70
2022/07/01 01:34:09;;;;;;;;;;;;;;;23.19;78.64;96877.79;581691;244;62927;-69
2022/07/01 01:36:37;;;;;;;;;;;;;;;23.18;78.58;96879.68;581657;244;68776;-69
2022/07/01 01:39:12;;;;;;;;;;;;;;;23.18;78.60;96877.00;581699;244;68648;-70
2022/07/01 01:41:38;;;;;;;;;;;;;;;23.18;78.68;96882.36;581638;244;63787;-70
2022/07/01 01:44:06;;;;;;;;;;;;;;;23.16;78.62;96879.19;581726;244;68788;-70
2022/07/01 01:46:34;;;;;;;;;;;;;;;23.18;78.71;96884.25;581716;244;71895;-68
2022/07/01 01:49:02;;;;;;;;;;;;;;;23.18;78.81;96879.68;581676;244;65138;-68
2022/07/01 01:51:29;;;;;;;;;;;;;;;23.17;78.69;96888.82;581695;244;68754;-68
2022/07/01 01:53:57;;;;;;;;;;;;;;;23.18;78.81;96893.08;579587;244;68348;-68
2022/07/01 01:56:24;;;;;;;;;;;;;;;23.18;78.96;96889.61;575134;246;64919;-68
2022/07/01 01:58:52;;;;;;;;;;;;;;;23.17;78.84;96894.18;575160;246;68654;-68
2022/07/01 02:01:20;;;;;;;;;;;;;;;23.18;78.84;96889.61;575113;246;69009;-68
2022/07/01 02:03:48;;;;;;;;;;;;;;;23.18;78.91;96905.70;575136;246;64913;-68
2022/07/01 02:06:16;;;;;;;;;;;;;;;23.18;78.89;96905.70;575108;246;66572;-68
2022/07/01 02:08:45;;;;;;;;;;;;;;;23.17;78.98;96904.91;575155;246;66623;-68
2022/07/01 02:11:13;;;;;;;;;;;;;;;23.16;78.89;96900.64;575196;246;62777;-68
2022/07/01 02:13:40;;;;;;;;;;;;;;;23.17;78.99;96904.11;575138;246;66474;-68
2022/07/01 02:16:08;;;;;;;;;;;;;;;23.16;78.97;96911.36;575153;246;66455;-68
2022/07/01 02:18:35;;;;;;;;;;;;;;;23.18;79.02;96911.06;575187;246;62758;-68
2022/07/01 02:21:03;;;;;;;;;;;;;;;23.17;79.05;96910.27;575128;246;68203;-68
2022/07/01 02:23:31;;;;;;;;;;;;;;;23.17;78.94;96904.91;575198;246;68588;-68
2022/07/01 02:25:58;;;;;;;;;;;;;;;23.17;79.10;96914.83;575124;246;64905;-68
2022/07/01 02:28:25;;;;;;;;;;;;;;;23.16;79.11;96919.41;575162;246;69016;-68
2022/07/01 02:30:53;;;;;;;;;;;;;;;23.17;79.13;96920.98;575148;246;68611;-68
2022/07/01 02:33:21;;;;;;;;;;;;;;;23.17;79.20;96923.67;575133;246;62774;-68
2022/07/01 02:35:49;;;;;;;;;;;;;;;23.17;79.24;96926.35;575202;246;68701;-68
2022/07/01 02:38:17;;;;;;;;;;;;;;;23.17;79.37;96922.88;575139;246;68694;-68
2022/07/01 02:40:45;;;;;;;;;;;;;;;23.17;79.16;96930.92;574758;246;65086;-69
2022/07/01 02:43:12;;;;;;;;;;;;;;;23.17;78.98;96933.59;575169;246;66340;-68
2022/07/01 02:45:41;;;;;;;;;;;;;;;23.17;79.02;96936.28;575190;246;68472;-69
2022/07/01 02:48:09;;;;;;;;;;;;;;;23.16;79.01;96935.48;575152;246;64947;-69
2022/07/01 02:50:36;;;;;;;;;;;;;;;23.16;79.09;96938.17;575184;246;68394;-69
2022/07/01 02:53:04;;;;;;;;;;;;;;;23.16;79.05;96935.48;575145;246;68379;-69
2022/07/01 02:55:32;;;;;;;;;;;;;;;23.17;79.00;96939.75;581438;244;65281;-69
2022/07/01 02:57:59;;;;;;;;;;;;;;;23.17;78.92;96937.07;581729;244;68515;-69
2022/07/01 03:00:26;;;;;;;;;;;;;;;23.17;79.00;96942.44;581684;244;68345;-69
2022/07/01 03:02:55;;;;;;;;;;;;;;;23.16;78.95;96938.17;581763;244;65109;-69
2022/07/01 03:05:23;;;;;;;;;;;;;;;23.17;79.11;96953.16;581719;244;66165;-69
2022/07/01 03:07:50;;;;;;;;;;;;;;;23.17;79.04;96949.69;581708;244;66330;-69
2022/07/01 03:10:18;;;;;;;;;;;;;;;23.17;79.11;96960.41;581728;244;62843;-69
2022/07/01 03:12:45;;;;;;;;;;;;;;;23.17;79.19;96958.52;581704;244;67415;-69
2022/07/01 03:15:14;;;;;;;;;;;;;;;23.16;79.27;96956.94;581687;244;68927;-69
2022/07/01 03:17:43;;;;;;;;;;;;;;;23.17;79.27;96960.41;581703;244;65175;-69
2022/07/01 03:20:12;;;;;;;;;;;;;;;23.17;79.33;96961.20;581636;244;68860;-69
2022/07/01 03:22:40;;;;;;;;;;;;;;;23.16;79.30;96959.61;581632;244;68519;-69
2022/07/01 03:25:08;;;;;;;;;;;;;;;23.16;79.25;96962.30;581694;244;64865;-69
2022/07/01 03:27:36;;;;;;;;;;;;;;;23.16;79.38;96964.98;581757;244;68918;-69
2022/07/01 03:30:06;;;;;;;;;;;;;;;23.16;79.36;96964.16;581691;244;68542;-69
2022/07/01 03:32:34;;;;;;;;;;;;;;;23.16;79.39;96978.38;581726;244;64905;-69
2022/07/01 03:35:35;;;;;;;;;;;;;;;23.16;79.49;96973.02;581648;244;68411;-69
2022/07/01 03:37:30;;;;;;;;;;;;;;;23.16;79.39;96970.34;581485;244;66567;-69
2022/07/01 03:39:58;;;;;;;;;;;;;;;23.17;79.30;96977.28;581691;244;62831;-69
2022/07/01 03:42:25;;;;;;;;;;;;;;;23.16;79.35;96977.55;581738;244;66742;-69
2022/07/01 03:44:53;;;;;;;;;;;;;;;23.16;79.38;96978.38;581655;244;66285;-69
2022/07/01 03:47:20;;;;;;;;;;;;;;;23.16;79.52;96978.38;581724;244;62800;-69
2022/07/01 03:49:47;;;;;;;;;;;;;;;23.17;79.48;96979.17;581719;244;66533;-69
2022/07/01 03:52:15;;;;;;;;;;;;;;;23.15;79.54;96982.13;581757;244;68463;-69
2022/07/01 03:54:42;;;;;;;;;;;;;;;23.16;79.66;96977.55;581662;244;64890;-69
2022/07/01 03:57:10;;;;;;;;;;;;;;;23.16;79.61;96978.38;581728;244;68660;-69
2022/07/01 03:59:38;;;;;;;;;;;;;;;23.16;79.75;96977.55;581817;244;68582;-68
2022/07/01 04:02:06;;;;;;;;;;;;;;;23.15;79.66;96976.77;581714;244;64941;-68
2022/07/01 04:04:34;;;;;;;;;;;;;;;23.16;79.57;96982.92;581747;244;68551;-68
2022/07/01 04:07:03;;;;;;;;;;;;;;;23.15;79.70;96976.77;581730;244;68631;-68
2022/07/01 04:09:31;;;;;;;;;;;;;;;23.16;79.84;96978.38;581699;244;66234;-69
2022/07/01 04:11:59;;;;;;;;;;;;;;;23.15;79.72;96979.44;581705;244;68725;-68
2022/07/01 04:14:26;;;;;;;;;;;;;;;23.16;79.81;96985.59;581713;244;68540;-68
2022/07/01 04:16:54;;;;;;;;;;;;;;;23.14;79.85;96985.91;581765;244;64739;-68
2022/07/01 04:19:22;;;;;;;;;;;;;;;23.15;79.90;96982.13;581707;244;68731;-68
2022/07/01 04:24:34;;;;;;;;;;;;;;;23.14;79.90;96980.54;581726;244;62824;-70
2022/07/01 04:27:04;;;;;;;;;;;;;;;23.15;79.80;96982.13;581701;244;68738;-70
2022/07/01 04:29:31;;;;;;;;;;;;;;;23.14;79.78;96975.17;581681;244;69753;-68
2022/07/01 04:31:59;;;;;;;;;;;;;;;23.14;79.82;96977.86;581751;244;65213;-68
2022/07/01 04:34:26;;;;;;;;;;;;;;;23.15;79.76;96975.97;581676;244;68689;-68
2022/07/01 04:36:55;;;;;;;;;;;;;;;23.14;79.71;96977.86;581692;244;67360;-68
2022/07/01 04:39:22;;;;;;;;;;;;;;;23.15;79.92;96978.66;581697;244;64924;-68
2022/07/01 04:42:02;;;;;;;;;;;;;;;23.14;79.93;96983.22;581694;244;68637;-68
2022/07/01 04:44:33;;;;;;;;;;;;;;;23.15;79.84;96984.02;581698;244;66599;-70
2022/07/01 04:47:01;;;;;;;;;;;;;;;23.15;79.81;96982.13;581729;244;64895;-70
2022/07/01 04:49:29;;;;;;;;;;;;;;;23.14;79.81;96983.22;581710;244;68372;-70
2022/07/01 04:51:57;;;;;;;;;;;;;;;23.14;79.83;96985.91;581698;244;68606;-70
2022/07/01 04:54:30;;;;;;;;;;;;;;;23.15;79.77;96992.05;578354;244;65118;-70
2022/07/01 04:56:54;;;;;;;;;;;;;;;23.15;79.72;96992.05;575176;243;69109;-70
2022/07/01 04:59:22;;;;;;;;;;;;;;;23.14;79.83;96985.91;575121;246;68387;-70
2022/07/01 05:01:49;;;;;;;;;;;;;;;23.15;79.92;96984.80;575033;246;64834;-70
2022/07/01 05:04:18;;;;;;;;;;;;;;;23.15;79.81;96992.05;575091;246;66447;-70
2022/07/01 05:06:45;;;;;;;;;;;;;;;23.15;79.90;96995.53;575120;246;68690;-70
2022/07/01 05:09:13;;;;;;;;;;;;;;;23.15;79.89;96994.73;575136;246;65082;-70
2022/07/01 05:11:40;;;;;;;;;;;;;;;23.16;79.89;96993.64;575193;246;68610;-70
2022/07/01 05:14:08;;;;;;;;;;;;;;;23.14;79.91;96991.27;575108;246;68648;-70
2022/07/01 05:16:36;;;;;;;;;;;;;;;23.15;79.90;96987.48;575144;246;64777;-70
2022/07/01 05:22:01;;;;;;;;;;;;;;;23.15;79.91;96992.05;575114;246;68655;-69
2022/07/01 05:24:30;;;;;;;;;;;;;;;23.14;79.94;96993.95;575124;246;64918;-70
2022/07/01 05:26:59;;;;;;;;;;;;;;;23.14;80.06;96991.27;575182;246;68853;-70
2022/07/01 05:29:26;;;;;;;;;;;;;;;23.14;80.13;96987.79;575120;246;68630;-68
2022/07/01 05:31:54;;;;;;;;;;;;;;;23.15;80.14;96986.70;575156;246;65093;-68
2022/07/01 05:34:21;;;;;;;;;;;;;;;23.14;80.03;96985.91;575129;246;68835;-68
2022/07/01 05:36:49;;;;;;;;;;;;;;;23.13;80.12;96989.65;574804;246;68272;-68
2022/07/01 05:39:16;;;;;;;;;;;;;;;23.14;80.07;96988.58;575138;246;65568;-68
2022/07/01 05:41:45;;;;;;;;;;;;;;;23.14;80.16;96987.79;575216;246;68813;-68
2022/07/01 05:44:13;;;;;;;;;;;;;;;23.14;80.22;96985.91;575040;246;68922;-68
2022/07/01 05:46:40;;;;;;;;;;;;;;;23.14;80.03;96982.42;575073;246;65246;-66
2022/07/01 05:49:08;;;;;;;;;;;;;;;23.14;80.08;96979.75;575072;246;68819;-68
2022/07/01 05:51:35;;;;;;;;;;;;;;;23.14;80.13;96980.54;574540;246;68640;-65
2022/07/01 05:54:03;;;;;;;;;;;;;;;23.15;79.71;96989.38;575130;246;65060;-67
2022/07/01 05:56:31;;;;;;;;;;;;;;;23.15;79.80;96987.48;575178;246;68796;-67
2022/07/01 05:59:01;;;;;;;;;;;;;;;23.14;79.74;96985.11;575021;246;68643;-68
2022/07/01 06:01:28;;;;;;;;;;;;;;;23.16;79.49;96981.06;575190;246;63015;-68
2022/07/01 06:03:56;;;;;;;;;;;;;;;23.17;78.92;96981.86;575158;246;68357;-69
2022/07/01 06:06:23;;;;;;;;;;;;;;;23.18;79.18;96981.55;575156;246;66498;-69
2022/07/01 06:08:50;;;;;;;;;;;;;;;23.18;79.40;96980.76;575152;246;62803;-68
2022/07/01 06:11:18;;;;;;;;;;;;;;;23.18;79.35;96986.12;575190;246;66783;-68
2022/07/01 06:13:45;;;;;;;;;;;;;;;23.16;79.05;96981.06;575098;246;66485;-68
2022/07/01 06:16:14;;;;;;;;;;;;;;;23.16;78.40;96982.92;575172;246;64928;-67
2022/07/01 06:18:42;;;;;;;;;;;;;;;23.17;78.55;96990.69;575186;246;68698;-68
2022/07/01 06:21:09;;;;;;;;;;;;;;;23.18;78.77;96992.27;575099;246;68600;-68
2022/07/01 06:23:37;;;;;;;;;;;;;;;23.20;78.88;96992.00;575154;246;62843;-68
2022/07/01 06:26:05;;;;;;;;;;;;;;;23.20;78.97;96983.95;575181;246;68783;-68
2022/07/01 06:28:33;;;;;;;;;;;;;;;23.20;79.17;96994.69;575125;246;66681;-68
2022/07/01 06:31:00;;;;;;;;;;;;;;;23.20;79.10;96987.44;574726;246;62836;-69
2022/07/01 06:33:30;;;;;;;;;;;;;;;23.20;79.21;96987.44;574997;246;68906;-69
2022/07/01 06:35:57;;;;;;;;;;;;;;;23.21;79.48;96991.70;575123;246;66491;-69
2022/07/01 06:38:25;;;;;;;;;;;;;;;23.21;79.64;96996.27;575145;246;64984;-68
2022/07/01 06:43:38;;;;;;;;;;;;;;;23.22;80.00;96989.84;575089;246;66509;-68
2022/07/01 06:46:05;;;;;;;;;;;;;;;23.21;80.31;96986.34;575184;246;65476;-68
2022/07/01 06:48:33;;;;;;;;;;;;;;;23.21;80.41;96999.74;575073;246;69486;-68
2022/07/01 06:51:01;;;;;;;;;;;;;;;23.21;80.44;96997.06;575198;246;68502;-67
2022/07/01 06:53:28;;;;;;;;;;;;;;;23.21;80.42;96988.23;575779;244;65231;-65
2022/07/01 06:55:57;;;;;;;;;;;;;;;23.24;80.74;96984.97;581632;244;68398;-67
2022/07/01 06:58:24;;;;;;;;;;;;;;;23.28;79.29;96995.94;581112;244;66753;-68
2022/07/01 07:00:52;;;;;;;;;;;;;;;23.26;79.61;96997.01;578595;244;62818;-68
2022/07/01 07:03:20;;;;;;;;;;;;;;;23.25;79.84;96984.70;579906;244;68528;-68
2022/07/01 07:05:47;;;;;;;;;;;;;;;23.25;80.23;96981.22;581570;244;68341;-67
2022/07/01 07:08:15;;;;;;;;;;;;;;;23.24;80.37;96991.16;581655;244;62808;-69
2022/07/01 07:10:42;;;;;;;;;;;;;;;23.25;80.45;96983.91;576236;244;66208;-70
2022/07/01 07:13:10;;;;;;;;;;;;;;;23.28;78.57;96987.90;575553;246;68650;-69
2022/07/01 07:15:41;;;;;;;;;;;;;;;23.32;78.70;96983.55;575524;246;64958;-70
2022/07/01 07:18:07;;;;;;;;;;;;;;;23.33;78.12;96983.27;575393;246;68182;-69
2022/07/01 07:20:35;;;;;;;;;;;;;;;23.35;78.42;96989.13;575529;246;66570;-67
2022/07/01 07:23:03;;;;;;;;;;;;;;;23.34;76.42;96984.86;575418;246;65006;-68
2022/07/01 07:25:30;;;;;;;;;;;;;;;23.35;78.63;96983.77;574466;246;68921;-66
2022/07/01 07:28:01;;;;;;;;;;;;;;;23.35;78.10;96988.33;574247;244;68754;-67
2022/07/01 07:30:28;;;;;;;;;;;;;;;23.33;79.24;96988.64;581553;244;65140;-67
2022/07/01 07:32:56;;;;;;;;;;;;;;;23.34;78.43;96981.38;581591;244;68856;-68
2022/07/01 07:35:23;;;;;;;;;;;;;;;23.35;78.59;96991.02;581660;244;66511;-66
2022/07/01 07:37:51;;;;;;;;;;;;;;;23.33;79.06;96985.95;581634;244;65129;-68
2022/07/01 07:40:18;;;;;;;;;;;;;;;23.33;79.25;96988.64;581620;244;69783;-69
2022/07/01 07:42:47;;;;;;;;;;;;;;;23.34;79.40;96986.75;581639;244;66381;-67
2022/07/01 07:45:15;;;;;;;;;;;;;;;23.35;79.28;96991.80;581637;244;64904;-67
2022/07/01 07:47:44;;;;;;;;;;;;;;;23.37;79.31;96988.84;581608;244;66773;-67
2022/07/01 07:50:12;;;;;;;;;;;;;;;23.38;79.54;96985.07;581664;244;69992;-66
2022/07/01 07:52:41;;;;;;;;;;;;;;;23.39;79.70;96984.01;581554;244;65065;-68
2022/07/01 07:55:09;;;;;;;;;;;;;;;23.39;79.67;96987.48;581591;244;66533;-68
2022/07/01 07:57:39;;;;;;;;;;;;;;;23.39;79.79;96986.69;581661;244;68571;-68
2022/07/01 08:00:09;;;;;;;;;;;;;;;23.40;79.84;96978.34;581569;244;64972;-68
2022/07/01 08:02:44;;;;;;;;;;;;;;;23.40;79.82;96981.02;581625;244;68948;-68
2022/07/01 08:05:12;;;;;;;;;;;;;;;23.41;79.92;96979.16;581689;244;68295;-68
2022/07/01 08:07:42;;;;;;;;;;;;;;;23.41;79.87;96979.16;581628;244;52397;-68
2022/07/01 08:10:11;;;;;;;;;;;;;;;23.41;79.91;96979.16;581625;244;68709;-67
2022/07/01 08:12:40;;;;;;;;;;;;;;;23.41;79.97;96985.31;581636;244;68998;-68
2022/07/01 08:15:08;;;;;;;;;;;;;;;23.42;79.93;96991.47;581564;244;65382;-68
2022/07/01 08:17:36;;;;;;;;;;;;;;;23.42;80.02;96989.58;581708;244;66297;-68
2022/07/01 08:20:06;;;;;;;;;;;;;;;23.42;80.03;96986.91;581656;244;50280;-68
2022/07/01 08:22:33;;;;;;;;;;;;;;;23.43;80.02;96990.37;581605;244;65103;-72
2022/07/01 08:25:02;;;;;;;;;;;;;;;23.42;80.04;96991.47;581650;244;66661;-75
2022/07/01 08:27:30;;;;;;;;;;;;;;;23.44;80.05;96989.31;581651;244;69481;-72
2022/07/01 08:29:59;;;;;;;;;;;;;;;23.43;80.07;96996.53;581560;244;64989;-71
2022/07/01 08:32:28;;;;;;;;;;;;;;;23.44;80.03;96994.67;581714;244;65818;-71
2022/07/01 08:34:57;;;;;;;;;;;;;;;23.44;80.07;96994.67;581650;244;66151;-71
2022/07/01 08:37:24;;;;;;;;;;;;;;;23.44;80.07;97000.04;581621;244;62933;-70
2022/07/01 08:39:52;;;;;;;;;;;;;;;23.44;80.10;97000.83;581611;244;68898;-71
2022/07/01 08:42:19;;;;;;;;;;;;;;;23.45;80.07;97009.67;581567;244;68574;-71
2022/07/01 08:44:47;;;;;;;;;;;;;;;23.45;80.08;97006.98;581677;244;65120;-71
2022/07/01 08:47:16;;;;;;;;;;;;;;;23.45;80.04;97015.83;581563;244;69481;-71
2022/07/01 08:49:44;;;;;;;;;;;;;;;23.45;80.05;97029.23;581553;244;68572;-71
2022/07/01 08:52:11;;;;;;;;;;;;;;;23.46;80.04;97030.03;581153;244;64911;-71
2022/07/01 08:54:39;;;;;;;;;;;;;;;23.45;80.02;97037.28;581443;244;66435;-71
2022/07/01 08:57:08;;;;;;;;;;;;;;;23.46;80.02;97038.08;581648;244;68650;-71
2022/07/01 08:59:36;;;;;;;;;;;;;;;23.46;80.03;97052.31;581618;244;65053;-71
2022/07/01 09:02:04;;;;;;;;;;;;;;;23.46;80.01;97059.53;581593;244;68646;-71
2022/07/01 09:04:33;;;;;;;;;;;;;;;23.46;79.98;97054.17;581540;244;66491;-71
2022/07/01 09:07:07;;;;;;;;;;;;;;;23.47;80.04;97063.83;581117;244;65082;-71
2022/07/01 09:09:38;;;;;;;;;;;;;;;23.47;79.98;97069.98;578056;244;68682;-71
2022/07/01 09:12:06;;;;;;;;;;;;;;;23.48;79.93;97082.30;578832;244;68517;-71
2022/07/01 09:14:35;;;;;;;;;;;;;;;23.48;79.87;97092.24;578496;244;64922;-71
2022/07/01 09:17:04;;;;;;;;;;;;;;;23.47;79.78;97104.06;579539;244;68841;-71
2022/07/01 09:19:35;;;;;;;;;;;;;;;23.48;79.81;97111.81;581423;244;64610;-70
2022/07/01 09:22:04;;;;;;;;;;;;;;;23.49;79.83;97109.95;581604;244;64911;-70
2022/07/01 09:24:33;;;;;;;;;;;;;;;23.48;79.88;97105.65;581676;244;66703;-70
2022/07/01 09:27:16;;;;;;;;;;;;;;;23.50;79.93;97108.86;581543;244;68861;-70
2022/07/01 09:29:36;;;;;;;;;;;;;;;23.49;79.95;97112.63;581475;243;65149;-71
2022/07/01 09:32:04;;;;;;;;;;;;;;;23.49;79.93;97105.37;581571;244;66661;-71
2022/07/01 09:34:42;;;;;;;;;;;;;;;23.50;79.94;97095.45;581575;244;68584;-71
2022/07/01 09:37:11;;;;;;;;;;;;;;;23.50;79.92;97090.08;581577;244;64759;-69
2022/07/01 09:39:43;;;;;;;;;;;;;;;23.50;79.96;97090.08;581490;244;66386;-70
2022/07/01 09:42:11;;;;;;;;;;;;;;;23.51;79.92;97094.34;581547;244;68742;-70
2022/07/01 09:44:40;;;;;;;;;;;;;;;23.51;79.87;97082.83;581568;244;64931;-70
2022/07/01 09:47:07;;;;;;;;;;;;;;;23.50;79.86;97073.98;580628;244;68345;-70
2022/07/01 09:49:35;;;;;;;;;;;;;;;23.51;79.83;97075.58;581623;244;68534;-70
2022/07/01 09:52:04;;;;;;;;;;;;;;;23.52;79.75;97054.91;581499;244;64935;-71
2022/07/01 09:54:32;;;;;;;;;;;;;;;23.52;79.72;97054.91;581477;244;68942;-77
2022/07/01 09:56:59;;;;;;;;;;;;;;;23.52;79.83;97055.73;581630;244;68614;-69
2022/07/01 09:59:27;;;;;;;;;;;;;;;23.51;77.29;97042.59;581578;244;64882;-71
2022/07/01 10:01:55;;;;;;;;;;;;;;;23.51;78.38;97047.95;581541;244;69603;-74
2022/07/01 10:04:23;;;;;;;;;;;;;;;23.49;79.17;97037.53;581682;244;68628;-69
2022/07/01 10:06:52;;;;;;;;;;;;;;;23.49;79.90;97042.89;581606;244;64920;-69
2022/07/01 10:09:21;;;;;;;;;;;;;;;23.48;79.32;97043.96;581288;244;66499;-69
2022/07/01 10:11:50;;;;;;;;;;;;;;;23.47;79.98;97047.73;581257;244;66499;-69
2022/07/01 10:14:18;;;;;;;;;;;;;;;23.46;80.16;97046.13;581564;244;62787;-73
2022/07/01 10:16:48;;;;;;;;;;;;;;;23.45;80.13;97033.81;575210;244;66087;-71
2022/07/01 10:19:25;;;;;;;;;;;;;;;23.45;80.41;97045.33;581606;244;68578;-69
2022/07/01 10:21:58;;;;;;;;;;;;;;;23.44;80.21;97040.27;581506;244;64961;-71
2022/07/01 10:24:24;;;;;;;;;;;;;;;23.44;79.97;97045.63;581512;243;68952;-70
2022/07/01 10:26:52;;;;;;;;;;;;;;;23.43;79.94;97046.70;580815;244;66587;-73
2022/07/01 10:29:30;;;;;;;;;;;;;;;23.43;79.91;97044.02;580586;244;65104;-72
2022/07/01 10:32:02;;;;;;;;;;;;;;;23.42;79.89;97047.80;581579;244;66463;-71
2022/07/01 10:34:40;;;;;;;;;;;;;;;23.42;79.81;97045.91;581629;244;66258;-71
2022/07/01 10:37:09;;;;;;;;;;;;;;;23.42;79.83;97039.75;581484;244;63773;-72
2022/07/01 10:39:56;;;;;;;;;;;;;;;23.41;79.62;97038.95;581632;244;66332;-72
2022/07/01 10:42:24;;;;;;;;;;;;;;;23.43;79.77;97041.33;581606;244;67822;-71
2022/07/01 10:45:03;;;;;;;;;;;;;;;23.43;79.67;97035.97;581474;244;62817;-69
2022/07/01 10:47:32;;;;;;;;;;;;;;;23.41;79.62;97036.27;581647;243;51172;-71
2022/07/01 10:50:01;;;;;;;;;;;;;;;23.42;77.11;97027.13;581665;244;69583;-72
2022/07/01 10:52:29;;;;;;;;;;;;;;;23.46;76.16;97024.66;581466;244;62945;-71
2022/07/01 10:54:59;;;;;;;;;;;;;;;23.48;75.92;97019.82;581619;244;66709;-70
2022/07/01 10:57:31;;;;;;;;;;;;;;;23.49;76.99;97014.19;581627;244;66243;-70
2022/07/01 11:00:04;;;;;;;;;;;;;;;23.49;77.63;97018.75;581609;244;64955;-69
2022/07/01 11:02:33;;;;;;;;;;;;;;;23.49;79.00;97024.12;581665;244;68106;-69
2022/07/01 11:05:02;;;;;;;;;;;;;;;23.47;79.39;97013.66;581458;244;68437;-69
2022/07/01 11:07:31;;;;;;;;;;;;;;;23.45;79.51;97007.78;581655;244;64911;-69
2022/07/01 11:09:59;;;;;;;;;;;;;;;23.45;79.66;97006.98;581658;244;68686;-68
2022/07/01 11:12:28;;;;;;;;;;;;;;;23.44;79.78;97011.56;581627;244;68345;-69
2022/07/01 11:14:58;;;;;;;;;;;;;;;23.45;79.75;96996.26;581574;244;65012;-66
2022/07/01 11:17:26;;;;;;;;;;;;;;;23.44;79.79;96995.47;581712;244;68523;-72
2022/07/01 11:19:57;;;;;;;;;;;;;;;23.46;80.02;96995.98;581590;244;69302;-69
2022/07/01 11:22:26;;;;;;;;;;;;;;;23.47;76.61;96994.09;581671;244;65142;-69
2022/07/01 11:24:55;;;;;;;;;;;;;;;23.48;78.57;96985.75;581666;244;68918;-69
2022/07/01 11:27:24;;;;;;;;;;;;;;;23.49;77.86;96981.20;581610;244;68517;-69
2022/07/01 11:29:54;;;;;;;;;;;;;;;23.50;78.94;96985.47;581680;244;65108;-69
2022/07/01 11:32:25;;;;;;;;;;;;;;;23.47;79.39;96980.69;581298;244;68664;-69
2022/07/01 11:34:53;;;;;;;;;;;;;;;23.46;79.45;96977.21;581263;244;68620;-69
2022/07/01 11:40:10;;;;;;;;;;;;;;;23.49;79.18;96975.84;581331;244;66515;-69
2022/07/01 11:42:37;;;;;;;;;;;;;;;23.49;78.50;96965.11;581432;244;66491;-69
2022/07/01 11:45:05;;;;;;;;;;;;;;;23.49;79.41;96971.27;581492;244;62847;-69
2022/07/01 11:47:33;;;;;;;;;;;;;;;23.47;79.68;96968.07;581544;244;66519;-69
2022/07/01 11:50:01;;;;;;;;;;;;;;;23.47;79.57;96967.27;581408;244;66389;-69
2022/07/01 11:52:28;;;;;;;;;;;;;;;23.47;79.57;96967.27;581338;244;63044;-69
2022/07/01 11:54:59;;;;;;;;;;;;;;;23.47;79.70;96959.23;576803;244;66528;-69
2022/07/01 11:57:29;;;;;;;;;;;;;;;23.47;79.68;96956.55;575052;246;68958;-67
2022/07/01 11:59:57;;;;;;;;;;;;;;;23.47;79.65;96946.61;575083;246;63143;-69
2022/07/01 12:02:25;;;;;;;;;;;;;;;23.51;78.97;96952.19;574546;246;68631;-69
2022/07/01 12:04:53;;;;;;;;;;;;;;;23.51;79.59;96952.19;574935;246;68803;-68
2022/07/01 12:07:21;;;;;;;;;;;;;;;23.50;79.45;96945.23;575152;246;62742;-68
2022/07/01 12:09:49;;;;;;;;;;;;;;;23.48;79.38;96948.20;574904;246;66450;-69
2022/07/01 12:12:18;;;;;;;;;;;;;;;23.47;79.42;96941.25;574917;246;66482;-69
2022/07/01 12:14:52;;;;;;;;;;;;;;;23.48;79.46;96936.67;574702;245;64986;-69
2022/07/01 12:17:20;;;;;;;;;;;;;;;23.48;79.45;96936.67;574862;246;66200;-70
2022/07/01 12:19:48;;;;;;;;;;;;;;;23.48;79.43;96937.47;575048;246;68696;-69
2022/07/01 12:22:18;;;;;;;;;;;;;;;23.51;78.13;96936.09;575072;246;64937;-68
2022/07/01 12:24:46;;;;;;;;;;;;;;;23.53;78.08;96922.41;574803;246;69861;-69
2022/07/01 12:27:14;;;;;;;;;;;;;;;23.52;79.29;96928.84;575080;246;68513;-70
2022/07/01 12:29:49;;;;;;;;;;;;;;;23.51;78.71;96924.57;575140;246;65094;-69
2022/07/01 12:32:24;;;;;;;;;;;;;;;23.49;78.93;96920.30;575036;246;68694;-69
2022/07/01 12:34:53;;;;;;;;;;;;;;;23.49;78.99;96922.20;575090;246;68623;-69
2022/07/01 12:37:21;;;;;;;;;;;;;;;23.49;79.16;96916.83;575043;246;63795;-68
2022/07/01 12:39:56;;;;;;;;;;;;;;;23.48;79.23;96916.01;575151;246;68915;-68
2022/07/01 12:42:28;;;;;;;;;;;;;;;23.49;79.24;96919.52;574060;246;68608;-71
2022/07/01 12:44:57;;;;;;;;;;;;;;;23.49;79.30;96916.83;574929;246;64899;-75
2022/07/01 12:47:27;;;;;;;;;;;;;;;23.48;79.20;96907.17;575053;246;68790;-72
2022/07/01 12:50:12;;;;;;;;;;;;;;;23.54;79.04;96905.22;575023;246;68630;-71
2022/07/01 12:52:42;;;;;;;;;;;;;;;23.53;78.64;96896.38;574957;246;62832;-71
2022/07/01 12:55:23;;;;;;;;;;;;;;;23.53;78.85;96898.27;575045;244;68714;-70
2022/07/01 12:57:51;;;;;;;;;;;;;;;23.52;78.99;96893.97;575073;246;68663;-71
2022/07/01 13:00:20;;;;;;;;;;;;;;;23.49;79.10;96881.97;574989;246;65023;-71
2022/07/01 13:02:48;;;;;;;;;;;;;;;23.51;79.31;96887.02;575053;246;68787;-71
2022/07/01 13:05:15;;;;;;;;;;;;;;;23.51;79.15;96887.02;575042;246;68473;-71